Terminal Aerodrome Forecast
Issued by NWS Sterling, VA

Home | Current Version | Previous Version | Text Only | Print | Product List | Glossary On
Versions: 1 2 3 4 5 6 7 8 9 10 11 12 13 14 15 16 17 18 19 20 21 22 23 24 25 26
000
FTUS41 KLWX 191005 AAB
TAFIAD
TAF AMD
KIAD 191005Z 1910/2012 29022G38KT P6SM OVC045
     FM191200 29023G40KT P6SM SCT040
     FM191800 30018G30KT P6SM SCT040
     FM200000 30012G20KT P6SM SCT040
     FM200600 29010G17KT P6SM SCT040=

USA.gov is the U.S. government's official web portal to all federal, state and local government web resources and services.